sensor_id;sensor_type;location;lat;lon;timestamp;pressure;altitude;pressure_sealevel;temperature;humidity
80397;BME280;69721;55.894;-3.052;2024-02-04T00:01:36;101092.33;;;4.44;64.45
80397;BME280;69721;55.894;-3.052;2024-02-04T00:04:01;101089.20;;;4.59;64.03
80397;BME280;69721;55.894;-3.052;2024-02-04T00:06:27;101096.43;;;4.50;63.79
80397;BME280;69721;55.894;-3.052;2024-02-04T00:08:52;101075.79;;;4.90;62.95
80397;BME280;69721;55.894;-3.052;2024-02-04T00:11:18;101086.73;;;4.92;62.07
80397;BME280;69721;55.894;-3.052;2024-02-04T00:13:48;101086.19;;;5.04;61.92
80397;BME280;69721;55.894;-3.052;2024-02-04T00:16:09;101096.86;;;4.47;63.52
80397;BME280;69721;55.894;-3.052;2024-02-04T00:18:35;101100.94;;;4.38;64.57
80397;BME280;69721;55.894;-3.052;2024-02-04T00:21:01;101113.81;;;5.00;62.60
80397;BME280;69721;55.894;-3.052;2024-02-04T00:23:26;101106.38;;;4.97;63.23
80397;BME280;69721;55.894;-3.052;2024-02-04T00:25:52;101105.97;;;4.77;63.63
80397;BME280;69721;55.894;-3.052;2024-02-04T00:28:17;101110.07;;;4.79;63.25
80397;BME280;69721;55.894;-3.052;2024-02-04T00:30:43;101119.37;;;4.80;64.31
80397;BME280;69721;55.894;-3.052;2024-02-04T00:33:08;101092.29;;;4.49;64.44
80397;BME280;69721;55.894;-3.052;2024-02-04T00:35:34;101091.07;;;4.89;64.06
80397;BME280;69721;55.894;-3.052;2024-02-04T00:38:00;101109.07;;;4.67;63.03
80397;BME280;69721;55.894;-3.052;2024-02-04T00:40:25;101094.65;;;4.64;63.03
80397;BME280;69721;55.894;-3.052;2024-02-04T00:42:51;101096.21;;;4.21;64.13
80397;BME280;69721;55.894;-3.052;2024-02-04T00:45:16;101108.41;;;5.11;62.05
80397;BME280;69721;55.894;-3.052;2024-02-04T00:47:42;101108.10;;;4.93;63.37
80397;BME280;69721;55.894;-3.052;2024-02-04T00:50:08;101107.22;;;4.64;63.26
80397;BME280;69721;55.894;-3.052;2024-02-04T00:52:33;101074.55;;;4.54;62.88
80397;BME280;69721;55.894;-3.052;2024-02-04T00:54:58;101090.54;;;4.95;61.69
80397;BME280;69721;55.894;-3.052;2024-02-04T00:57:24;101079.81;;;4.65;62.20
80397;BME280;69721;55.894;-3.052;2024-02-04T00:59:50;101104.68;;;4.70;61.44
80397;BME280;69721;55.894;-3.052;2024-02-04T01:02:15;101100.36;;;4.97;62.50
80397;BME280;69721;55.894;-3.052;2024-02-04T01:04:40;101076.19;;;4.59;62.90
80397;BME280;69721;55.894;-3.052;2024-02-04T01:07:06;101091.09;;;4.07;64.24
80397;BME280;69721;55.894;-3.052;2024-02-04T01:09:31;101091.86;;;4.54;63.90
80397;BME280;69721;55.894;-3.052;2024-02-04T01:11:58;101085.69;;;4.85;62.91
80397;BME280;69721;55.894;-3.052;2024-02-04T01:14:23;101100.82;;;3.89;64.43
80397;BME280;69721;55.894;-3.052;2024-02-04T01:16:48;101084.85;;;4.69;63.36
80397;BME280;69721;55.894;-3.052;2024-02-04T01:19:13;101058.81;;;5.37;61.52
80397;BME280;69721;55.894;-3.052;2024-02-04T01:21:39;101042.14;;;5.73;59.39
80397;BME280;69721;55.894;-3.052;2024-02-04T01:24:05;101045.25;;;4.70;62.18
80397;BME280;69721;55.894;-3.052;2024-02-04T01:26:30;101039.28;;;4.54;62.57
80397;BME280;69721;55.894;-3.052;2024-02-04T01:28:56;101037.67;;;5.19;61.71
80397;BME280;69721;55.894;-3.052;2024-02-04T01:31:22;101023.83;;;4.52;62.98
80397;BME280;69721;55.894;-3.052;2024-02-04T01:33:48;101024.39;;;4.21;63.56
80397;BME280;69721;55.894;-3.052;2024-02-04T01:36:13;101033.16;;;5.62;60.88
80397;BME280;69721;55.894;-3.052;2024-02-04T01:38:39;101036.91;;;4.27;64.37
80397;BME280;69721;55.894;-3.052;2024-02-04T01:41:04;101028.01;;;4.99;62.80
80397;BME280;69721;55.894;-3.052;2024-02-04T01:43:30;101032.81;;;4.83;62.11
80397;BME280;69721;55.894;-3.052;2024-02-04T01:45:56;101035.62;;;4.75;64.01
80397;BME280;69721;55.894;-3.052;2024-02-04T01:48:24;101043.04;;;4.60;65.14
80397;BME280;69721;55.894;-3.052;2024-02-04T01:50:47;101044.32;;;4.70;64.65
80397;BME280;69721;55.894;-3.052;2024-02-04T01:53:12;101061.91;;;5.08;64.13
80397;BME280;69721;55.894;-3.052;2024-02-04T01:55:47;101051.26;;;5.25;64.63
80397;BME280;69721;55.894;-3.052;2024-02-04T01:58:12;101047.56;;;4.39;65.70
80397;BME280;69721;55.894;-3.052;2024-02-04T02:00:38;101057.79;;;4.54;65.39
80397;BME280;69721;55.894;-3.052;2024-02-04T02:03:05;101042.88;;;4.36;67.45
80397;BME280;69721;55.894;-3.052;2024-02-04T02:05:29;101027.06;;;4.54;65.65
80397;BME280;69721;55.894;-3.052;2024-02-04T02:07:54;101038.86;;;4.66;65.16
80397;BME280;69721;55.894;-3.052;2024-02-04T02:10:20;101049.28;;;4.64;65.69
80397;BME280;69721;55.894;-3.052;2024-02-04T02:12:52;101052.14;;;4.34;66.27
80397;BME280;69721;55.894;-3.052;2024-02-04T02:15:18;101028.96;;;4.97;66.55
80397;BME280;69721;55.894;-3.052;2024-02-04T02:17:41;101020.09;;;4.93;65.20
80397;BME280;69721;55.894;-3.052;2024-02-04T02:20:05;101002.33;;;5.06;65.05
80397;BME280;69721;55.894;-3.052;2024-02-04T02:22:29;101013.07;;;4.43;66.89
80397;BME280;69721;55.894;-3.052;2024-02-04T02:24:57;101014.48;;;4.45;68.91
80397;BME280;69721;55.894;-3.052;2024-02-04T02:27:19;101012.18;;;4.41;69.92
80397;BME280;69721;55.894;-3.052;2024-02-04T02:29:45;100998.51;;;5.16;67.33
80397;BME280;69721;55.894;-3.052;2024-02-04T02:32:10;100990.48;;;5.59;66.01
80397;BME280;69721;55.894;-3.052;2024-02-04T02:34:36;100985.37;;;5.18;66.81
80397;BME280;69721;55.894;-3.052;2024-02-04T02:37:10;100977.93;;;5.50;67.55
80397;BME280;69721;55.894;-3.052;2024-02-04T02:39:32;100966.49;;;5.38;65.61
80397;BME280;69721;55.894;-3.052;2024-02-04T02:41:57;100972.08;;;5.03;67.80
80397;BME280;69721;55.894;-3.052;2024-02-04T02:44:19;100971.85;;;4.33;69.76
80397;BME280;69721;55.894;-3.052;2024-02-04T02:46:44;100973.56;;;4.83;68.81
80397;BME280;69721;55.894;-3.052;2024-02-04T02:49:09;100958.21;;;4.64;68.60
80397;BME280;69721;55.894;-3.052;2024-02-04T02:51:35;100960.07;;;4.76;68.93
80397;BME280;69721;55.894;-3.052;2024-02-04T02:54:00;100980.82;;;4.76;68.89
80397;BME280;69721;55.894;-3.052;2024-02-04T02:56:26;100968.53;;;4.60;71.01
80397;BME280;69721;55.894;-3.052;2024-02-04T02:58:51;100967.60;;;4.94;69.43
80397;BME280;69721;55.894;-3.052;2024-02-04T03:01:17;100973.00;;;4.79;70.56
80397;BME280;69721;55.894;-3.052;2024-02-04T03:03:42;100978.47;;;4.83;69.30
80397;BME280;69721;55.894;-3.052;2024-02-04T03:06:08;100977.42;;;5.12;68.67
80397;BME280;69721;55.894;-3.052;2024-02-04T03:08:33;100975.20;;;5.22;67.87
80397;BME280;69721;55.894;-3.052;2024-02-04T03:10:59;100972.43;;;6.11;66.05
80397;BME280;69721;55.894;-3.052;2024-02-04T03:13:24;100988.33;;;5.46;67.71
80397;BME280;69721;55.894;-3.052;2024-02-04T03:15:50;100986.50;;;4.79;70.82
80397;BME280;69721;55.894;-3.052;2024-02-04T03:18:15;100985.03;;;5.33;68.95
80397;BME280;69721;55.894;-3.052;2024-02-04T03:20:41;100989.30;;;5.25;69.67
80397;BME280;69721;55.894;-3.052;2024-02-04T03:23:06;100974.65;;;4.91;71.92
80397;BME280;69721;55.894;-3.052;2024-02-04T03:25:32;100999.90;;;4.27;74.01
80397;BME280;69721;55.894;-3.052;2024-02-04T03:27:59;100982.88;;;4.32;74.52
80397;BME280;69721;55.894;-3.052;2024-02-04T03:30:23;100963.68;;;4.52;74.32
80397;BME280;69721;55.894;-3.052;2024-02-04T03:32:49;100959.76;;;5.42;71.93
80397;BME280;69721;55.894;-3.052;2024-02-04T03:35:15;100957.72;;;5.43;71.95
80397;BME280;69721;55.894;-3.052;2024-02-04T03:37:40;100966.56;;;5.02;71.98
80397;BME280;69721;55.894;-3.052;2024-02-04T03:40:07;100939.42;;;5.16;71.73
80397;BME280;69721;55.894;-3.052;2024-02-04T03:42:32;100932.50;;;5.01;71.09
80397;BME280;69721;55.894;-3.052;2024-02-04T03:44:57;100960.61;;;4.97;71.27
80397;BME280;69721;55.894;-3.052;2024-02-04T03:47:23;100942.59;;;5.16;70.27
80397;BME280;69721;55.894;-3.052;2024-02-04T03:49:48;100952.52;;;5.50;69.78
80397;BME280;69721;55.894;-3.052;2024-02-04T03:52:14;100949.22;;;5.29;70.13
80397;BME280;69721;55.894;-3.052;2024-02-04T03:54:39;100922.81;;;5.55;68.34
80397;BME280;69721;55.894;-3.052;2024-02-04T03:57:04;100932.33;;;5.57;68.68
80397;BME280;69721;55.894;-3.052;2024-02-04T03:59:30;100918.14;;;5.25;68.83
80397;BME280;69721;55.894;-3.052;2024-02-04T04:01:55;100924.69;;;5.29;69.17
80397;BME280;69721;55.894;-3.052;2024-02-04T04:04:21;100900.63;;;5.83;67.81
80397;BME280;69721;55.894;-3.052;2024-02-04T04:06:46;100911.50;;;5.15;70.94
80397;BME280;69721;55.894;-3.052;2024-02-04T04:09:12;100914.15;;;5.00;72.29
80397;BME280;69721;55.894;-3.052;2024-02-04T04:11:38;100915.26;;;5.41;71.35
80397;BME280;69721;55.894;-3.052;2024-02-04T04:14:03;100900.27;;;5.50;71.36
80397;BME280;69721;55.894;-3.052;2024-02-04T04:16:29;100886.78;;;5.39;70.80
80397;BME280;69721;55.894;-3.052;2024-02-04T04:18:54;100891.21;;;5.38;69.96
80397;BME280;69721;55.894;-3.052;2024-02-04T04:21:19;100895.05;;;5.38;71.46
80397;BME280;69721;55.894;-3.052;2024-02-04T04:23:45;100898.37;;;5.00;73.92
80397;BME280;69721;55.894;-3.052;2024-02-04T04:26:10;100875.15;;;5.23;73.00
80397;BME280;69721;55.894;-3.052;2024-02-04T04:28:37;100861.42;;;6.49;68.97
80397;BME280;69721;55.894;-3.052;2024-02-04T04:31:02;100877.71;;;4.74;71.78
80397;BME280;69721;55.894;-3.052;2024-02-04T04:33:28;100867.62;;;5.19;71.68
80397;BME280;69721;55.894;-3.052;2024-02-04T04:35:54;100873.56;;;5.19;70.14
80397;BME280;69721;55.894;-3.052;2024-02-04T04:38:19;100857.27;;;5.00;71.50
80397;BME280;69721;55.894;-3.052;2024-02-04T04:40:44;100863.30;;;5.19;70.00
80397;BME280;69721;55.894;-3.052;2024-02-04T04:43:10;100850.28;;;6.10;68.24
80397;BME280;69721;55.894;-3.052;2024-02-04T04:45:35;100857.65;;;5.43;67.74
80397;BME280;69721;55.894;-3.052;2024-02-04T04:48:01;100866.79;;;5.64;67.96
80397;BME280;69721;55.894;-3.052;2024-02-04T04:50:27;100879.89;;;5.52;67.79
80397;BME280;69721;55.894;-3.052;2024-02-04T04:52:52;100877.44;;;5.46;67.79
80397;BME280;69721;55.894;-3.052;2024-02-04T04:55:19;100877.07;;;5.18;67.91
80397;BME280;69721;55.894;-3.052;2024-02-04T04:57:43;100887.14;;;5.09;67.93
80397;BME280;69721;55.894;-3.052;2024-02-04T05:00:10;100895.69;;;5.70;66.75
80397;BME280;69721;55.894;-3.052;2024-02-04T05:02:34;100885.23;;;5.32;66.73
80397;BME280;69721;55.894;-3.052;2024-02-04T05:05:00;100890.37;;;5.27;66.97
80397;BME280;69721;55.894;-3.052;2024-02-04T05:07:26;100871.87;;;5.41;67.02
80397;BME280;69721;55.894;-3.052;2024-02-04T05:09:51;100869.98;;;5.97;65.49
80397;BME280;69721;55.894;-3.052;2024-02-04T05:12:17;100870.99;;;5.25;67.04
80397;BME280;69721;55.894;-3.052;2024-02-04T05:14:42;100868.92;;;4.97;67.02
80397;BME280;69721;55.894;-3.052;2024-02-04T05:17:08;100868.91;;;5.68;66.25
80397;BME280;69721;55.894;-3.052;2024-02-04T05:19:33;100855.56;;;5.32;66.72
80397;BME280;69721;55.894;-3.052;2024-02-04T05:21:59;100847.40;;;5.45;66.13
80397;BME280;69721;55.894;-3.052;2024-02-04T05:24:24;100841.10;;;5.84;66.62
80397;BME280;69721;55.894;-3.052;2024-02-04T05:26:50;100842.46;;;5.88;66.05
80397;BME280;69721;55.894;-3.052;2024-02-04T05:29:16;100831.77;;;4.94;68.27
80397;BME280;69721;55.894;-3.052;2024-02-04T05:31:42;100849.64;;;5.83;65.98
80397;BME280;69721;55.894;-3.052;2024-02-04T05:34:07;100848.66;;;5.70;65.52
80397;BME280;69721;55.894;-3.052;2024-02-04T05:36:33;100852.46;;;5.05;66.74
80397;BME280;69721;55.894;-3.052;2024-02-04T05:41:24;100833.03;;;5.68;64.76
80397;BME280;69721;55.894;-3.052;2024-02-04T05:43:49;100839.02;;;5.41;65.54
80397;BME280;69721;55.894;-3.052;2024-02-04T05:46:15;100831.31;;;5.84;63.29
80397;BME280;69721;55.894;-3.052;2024-02-04T05:48:41;100836.84;;;5.32;65.20
80397;BME280;69721;55.894;-3.052;2024-02-04T05:51:05;100813.57;;;5.89;63.70
80397;BME280;69721;55.894;-3.052;2024-02-04T05:53:31;100808.43;;;6.29;62.86
80397;BME280;69721;55.894;-3.052;2024-02-04T05:55:56;100805.40;;;5.35;65.37
80397;BME280;69721;55.894;-3.052;2024-02-04T05:58:22;100796.17;;;5.44;65.36
80397;BME280;69721;55.894;-3.052;2024-02-04T06:00:47;100777.50;;;5.27;65.62
80397;BME280;69721;55.894;-3.052;2024-02-04T06:03:13;100792.95;;;5.91;65.15
80397;BME280;69721;55.894;-3.052;2024-02-04T06:05:38;100788.56;;;4.99;67.32
80397;BME280;69721;55.894;-3.052;2024-02-04T06:08:05;100791.80;;;5.68;65.67
80397;BME280;69721;55.894;-3.052;2024-02-04T06:10:29;100775.90;;;4.95;67.38
80397;BME280;69721;55.894;-3.052;2024-02-04T06:12:57;100793.07;;;4.91;68.08
80397;BME280;69721;55.894;-3.052;2024-02-04T06:15:22;100764.28;;;5.29;66.70
80397;BME280;69721;55.894;-3.052;2024-02-04T06:17:48;100783.15;;;5.30;65.85
80397;BME280;69721;55.894;-3.052;2024-02-04T06:20:13;100770.48;;;5.27;67.11
80397;BME280;69721;55.894;-3.052;2024-02-04T06:22:39;100783.00;;;5.40;66.39
80397;BME280;69721;55.894;-3.052;2024-02-04T06:25:05;100789.50;;;5.43;65.86
80397;BME280;69721;55.894;-3.052;2024-02-04T06:27:30;100783.54;;;5.01;67.83
80397;BME280;69721;55.894;-3.052;2024-02-04T06:29:55;100782.16;;;5.17;67.00
80397;BME280;69721;55.894;-3.052;2024-02-04T06:32:21;100780.54;;;5.36;66.99
80397;BME280;69721;55.894;-3.052;2024-02-04T06:34:47;100794.98;;;5.24;66.75
80397;BME280;69721;55.894;-3.052;2024-02-04T06:37:12;100784.37;;;5.42;66.19
80397;BME280;69721;55.894;-3.052;2024-02-04T06:39:38;100804.61;;;5.36;67.04
80397;BME280;69721;55.894;-3.052;2024-02-04T06:42:04;100801.23;;;5.74;66.34
80397;BME280;69721;55.894;-3.052;2024-02-04T06:44:30;100798.74;;;5.82;66.27
80397;BME280;69721;55.894;-3.052;2024-02-04T06:46:55;100777.24;;;5.41;68.36
80397;BME280;69721;55.894;-3.052;2024-02-04T06:49:21;100785.37;;;5.05;68.58
80397;BME280;69721;55.894;-3.052;2024-02-04T06:51:46;100783.82;;;5.35;68.89
80397;BME280;69721;55.894;-3.052;2024-02-04T06:54:12;100774.72;;;5.92;66.50
80397;BME280;69721;55.894;-3.052;2024-02-04T06:56:37;100770.92;;;5.66;68.06
80397;BME280;69721;55.894;-3.052;2024-02-04T06:59:02;100782.57;;;5.30;68.35
80397;BME280;69721;55.894;-3.052;2024-02-04T07:01:28;100792.60;;;6.07;67.24
80397;BME280;69721;55.894;-3.052;2024-02-04T07:03:53;100796.29;;;5.79;67.75
80397;BME280;69721;55.894;-3.052;2024-02-04T07:06:19;100811.59;;;5.47;69.55
80397;BME280;69721;55.894;-3.052;2024-02-04T07:08:44;100803.72;;;5.41;69.64
80397;BME280;69721;55.894;-3.052;2024-02-04T07:11:10;100788.32;;;5.50;70.02
80397;BME280;69721;55.894;-3.052;2024-02-04T07:13:36;100797.72;;;5.37;70.68
80397;BME280;69721;55.894;-3.052;2024-02-04T07:16:01;100827.05;;;5.32;72.14
80397;BME280;69721;55.894;-3.052;2024-02-04T07:18:27;100808.33;;;5.25;73.48
80397;BME280;69721;55.894;-3.052;2024-02-04T07:20:53;100797.17;;;5.62;72.95
80397;BME280;69721;55.894;-3.052;2024-02-04T07:23:18;100797.20;;;4.46;74.97
80397;BME280;69721;55.894;-3.052;2024-02-04T07:25:44;100801.69;;;5.16;73.39
80397;BME280;69721;55.894;-3.052;2024-02-04T07:28:09;100805.57;;;4.93;73.48
80397;BME280;69721;55.894;-3.052;2024-02-04T07:30:34;100805.74;;;4.64;72.96
80397;BME280;69721;55.894;-3.052;2024-02-04T07:33:00;100805.58;;;5.35;71.48
80397;BME280;69721;55.894;-3.052;2024-02-04T07:35:25;100809.85;;;5.28;71.33
80397;BME280;69721;55.894;-3.052;2024-02-04T07:37:56;100800.41;;;4.93;71.13
80397;BME280;69721;55.894;-3.052;2024-02-04T07:40:20;100796.15;;;5.94;68.43
80397;BME280;69721;55.894;-3.052;2024-02-04T07:42:42;100804.87;;;5.68;68.67
80397;BME280;69721;55.894;-3.052;2024-02-04T07:45:09;100812.29;;;5.80;67.42
80397;BME280;69721;55.894;-3.052;2024-02-04T07:47:33;100816.41;;;6.00;68.19
80397;BME280;69721;55.894;-3.052;2024-02-04T07:49:58;100819.55;;;5.86;69.07
80397;BME280;69721;55.894;-3.052;2024-02-04T07:52:25;100820.92;;;5.12;71.63
80397;BME280;69721;55.894;-3.052;2024-02-04T07:54:50;100810.05;;;5.71;71.38
80397;BME280;69721;55.894;-3.052;2024-02-04T07:57:16;100819.87;;;6.18;69.73
80397;BME280;69721;55.894;-3.052;2024-02-04T07:59:41;100810.33;;;6.02;68.60
80397;BME280;69721;55.894;-3.052;2024-02-04T08:02:07;100822.16;;;5.15;71.08
80397;BME280;69721;55.894;-3.052;2024-02-04T08:04:32;100821.52;;;4.68;70.40
80397;BME280;69721;55.894;-3.052;2024-02-04T08:06:58;100825.20;;;4.82;69.47
80397;BME280;69721;55.894;-3.052;2024-02-04T08:09:23;100826.82;;;4.90;69.49
80397;BME280;69721;55.894;-3.052;2024-02-04T08:11:49;100837.05;;;5.31;68.37
80397;BME280;69721;55.894;-3.052;2024-02-04T08:14:15;100825.58;;;4.82;68.64
80397;BME280;69721;55.894;-3.052;2024-02-04T08:16:40;100828.35;;;5.15;68.21
80397;BME280;69721;55.894;-3.052;2024-02-04T08:19:06;100815.92;;;5.04;68.77
80397;BME280;69721;55.894;-3.052;2024-02-04T08:21:31;100827.08;;;4.67;69.71
80397;BME280;69721;55.894;-3.052;2024-02-04T08:23:57;100826.73;;;4.80;70.38
80397;BME280;69721;55.894;-3.052;2024-02-04T08:26:22;100825.17;;;4.96;70.47
80397;BME280;69721;55.894;-3.052;2024-02-04T08:28:48;100816.71;;;4.92;70.30
80397;BME280;69721;55.894;-3.052;2024-02-04T08:31:13;100824.52;;;4.94;70.24
80397;BME280;69721;55.894;-3.052;2024-02-04T08:33:39;100822.19;;;4.87;70.51
80397;BME280;69721;55.894;-3.052;2024-02-04T08:36:05;100820.72;;;5.07;70.46
80397;BME280;69721;55.894;-3.052;2024-02-04T08:38:30;100848.73;;;5.13;70.28
80397;BME280;69721;55.894;-3.052;2024-02-04T08:40:55;100824.86;;;5.08;70.55
80397;BME280;69721;55.894;-3.052;2024-02-04T08:43:21;100819.66;;;4.91;72.14
80397;BME280;69721;55.894;-3.052;2024-02-04T08:45:46;100828.27;;;4.73;72.10
80397;BME280;69721;55.894;-3.052;2024-02-04T08:48:12;100815.44;;;4.38;73.63
80397;BME280;69721;55.894;-3.052;2024-02-04T08:50:38;100809.52;;;5.05;71.81
80397;BME280;69721;55.894;-3.052;2024-02-04T08:53:03;100808.64;;;4.87;72.68
80397;BME280;69721;55.894;-3.052;2024-02-04T08:55:28;100808.31;;;5.07;71.41
80397;BME280;69721;55.894;-3.052;2024-02-04T08:57:54;100794.58;;;5.47;70.13
80397;BME280;69721;55.894;-3.052;2024-02-04T09:00:20;100795.33;;;6.59;67.95
80397;BME280;69721;55.894;-3.052;2024-02-04T09:02:45;100797.89;;;6.61;66.71
80397;BME280;69721;55.894;-3.052;2024-02-04T09:05:11;100799.63;;;5.99;68.06
80397;BME280;69721;55.894;-3.052;2024-02-04T09:07:36;100801.43;;;5.13;68.65
80397;BME280;69721;55.894;-3.052;2024-02-04T09:10:02;100805.96;;;4.88;69.80
80397;BME280;69721;55.894;-3.052;2024-02-04T09:12:27;100788.12;;;5.59;67.76
80397;BME280;69721;55.894;-3.052;2024-02-04T09:14:53;100779.72;;;5.52;68.78
80397;BME280;69721;55.894;-3.052;2024-02-04T09:17:18;100787.14;;;5.58;67.32
80397;BME280;69721;55.894;-3.052;2024-02-04T09:19:44;100796.02;;;5.23;67.61
80397;BME280;69721;55.894;-3.052;2024-02-04T09:22:10;100801.22;;;5.04;68.00
80397;BME280;69721;55.894;-3.052;2024-02-04T09:24:35;100796.59;;;4.79;68.92
80397;BME280;69721;55.894;-3.052;2024-02-04T09:27:01;100794.63;;;5.47;66.32
80397;BME280;69721;55.894;-3.052;2024-02-04T09:29:26;100781.92;;;5.96;64.97
80397;BME280;69721;55.894;-3.052;2024-02-04T09:31:52;100779.96;;;5.50;65.95
80397;BME280;69721;55.894;-3.052;2024-02-04T09:34:17;100777.01;;;6.17;63.91
80397;BME280;69721;55.894;-3.052;2024-02-04T09:36:43;100770.44;;;6.09;63.42
80397;BME280;69721;55.894;-3.052;2024-02-04T09:39:09;100767.84;;;6.18;64.08
80397;BME280;69721;55.894;-3.052;2024-02-04T09:41:34;100771.13;;;6.07;65.23
80397;BME280;69721;55.894;-3.052;2024-02-04T09:44:02;100771.07;;;6.42;63.35
80397;BME280;69721;55.894;-3.052;2024-02-04T09:46:25;100773.29;;;6.16;63.52
80397;BME280;69721;55.894;-3.052;2024-02-04T09:48:52;100776.76;;;5.33;65.30
80397;BME280;69721;55.894;-3.052;2024-02-04T09:51:16;100770.37;;;5.76;65.15
80397;BME280;69721;55.894;-3.052;2024-02-04T09:53:44;100764.59;;;5.16;66.42
80397;BME280;69721;55.894;-3.052;2024-02-04T09:56:07;100760.94;;;4.99;65.53
80397;BME280;69721;55.894;-3.052;2024-02-04T09:58:32;100763.31;;;5.58;65.66
80397;BME280;69721;55.894;-3.052;2024-02-04T10:01:00;100751.90;;;5.89;64.90
80397;BME280;69721;55.894;-3.052;2024-02-04T10:03:23;100742.78;;;5.74;64.66
80397;BME280;69721;55.894;-3.052;2024-02-04T10:05:49;100749.43;;;5.87;64.18
80397;BME280;69721;55.894;-3.052;2024-02-04T10:08:15;100751.14;;;5.14;65.01
80397;BME280;69721;55.894;-3.052;2024-02-04T10:10:41;100739.33;;;5.28;66.19
80397;BME280;69721;55.894;-3.052;2024-02-04T10:13:07;100733.69;;;5.74;64.13
80397;BME280;69721;55.894;-3.052;2024-02-04T10:15:32;100741.68;;;6.50;62.89
80397;BME280;69721;55.894;-3.052;2024-02-04T10:17:57;100731.01;;;6.18;64.37
80397;BME280;69721;55.894;-3.052;2024-02-04T10:20:23;100722.36;;;6.04;63.83
80397;BME280;69721;55.894;-3.052;2024-02-04T10:22:48;100715.84;;;6.33;62.94
80397;BME280;69721;55.894;-3.052;2024-02-04T10:25:14;100721.41;;;6.72;63.16
80397;BME280;69721;55.894;-3.052;2024-02-04T10:27:41;100719.19;;;6.59;62.32
80397;BME280;69721;55.894;-3.052;2024-02-04T10:30:06;100711.25;;;6.32;63.21
80397;BME280;69721;55.894;-3.052;2024-02-04T10:32:31;100714.46;;;6.81;62.80
80397;BME280;69721;55.894;-3.052;2024-02-04T10:34:57;100708.12;;;6.47;63.55
80397;BME280;69721;55.894;-3.052;2024-02-04T10:37:21;100701.11;;;5.62;66.18
80397;BME280;69721;55.894;-3.052;2024-02-04T10:39:47;100694.74;;;5.67;66.86
80397;BME280;69721;55.894;-3.052;2024-02-04T10:42:13;100705.15;;;6.00;66.29
80397;BME280;69721;55.894;-3.052;2024-02-04T10:44:39;100697.25;;;6.74;64.12
80397;BME280;69721;55.894;-3.052;2024-02-04T10:47:06;100693.53;;;6.16;64.25
80397;BME280;69721;55.894;-3.052;2024-02-04T10:49:29;100690.78;;;7.66;60.88
80397;BME280;69721;55.894;-3.052;2024-02-04T10:51:56;100698.98;;;7.30;62.06
80397;BME280;69721;55.894;-3.052;2024-02-04T10:54:20;100700.58;;;6.18;63.70
80397;BME280;69721;55.894;-3.052;2024-02-04T10:56:46;100705.02;;;6.23;63.34
80397;BME280;69721;55.894;-3.052;2024-02-04T10:59:11;100680.85;;;6.40;62.88
80397;BME280;69721;55.894;-3.052;2024-02-04T11:01:37;100678.76;;;6.34;62.65
80397;BME280;69721;55.894;-3.052;2024-02-04T11:04:04;100666.42;;;6.17;63.74
80397;BME280;69721;55.894;-3.052;2024-02-04T11:06:28;100665.37;;;7.53;60.36
80397;BME280;69721;55.894;-3.052;2024-02-04T11:08:54;100651.11;;;7.42;62.28
80397;BME280;69721;55.894;-3.052;2024-02-04T11:11:19;100661.18;;;7.82;61.00
80397;BME280;69721;55.894;-3.052;2024-02-04T11:13:50;100674.99;;;7.97;60.20
80397;BME280;69721;55.894;-3.052;2024-02-04T11:16:19;100661.82;;;7.21;62.02
80397;BME280;69721;55.894;-3.052;2024-02-04T11:18:49;100651.26;;;6.72;63.00
80397;BME280;69721;55.894;-3.052;2024-02-04T11:23:40;100645.22;;;8.10;60.61
80397;BME280;69721;55.894;-3.052;2024-02-04T11:25:54;100629.86;;;7.49;61.71
80397;BME280;69721;55.894;-3.052;2024-02-04T11:28:20;100632.46;;;7.58;61.77
80397;BME280;69721;55.894;-3.052;2024-02-04T11:30:44;100649.37;;;6.96;62.47
80397;BME280;69721;55.894;-3.052;2024-02-04T11:33:12;100661.24;;;6.22;65.16
80397;BME280;69721;55.894;-3.052;2024-02-04T11:35:35;100635.82;;;6.42;65.44
80397;BME280;69721;55.894;-3.052;2024-02-04T11:38:02;100640.38;;;7.01;63.88
80397;BME280;69721;55.894;-3.052;2024-02-04T11:40:34;100634.77;;;7.62;63.28
80397;BME280;69721;55.894;-3.052;2024-02-04T11:45:18;100610.94;;;6.85;65.13
80397;BME280;69721;55.894;-3.052;2024-02-04T11:47:43;100602.22;;;6.74;65.17
80397;BME280;69721;55.894;-3.052;2024-02-04T11:50:09;100587.40;;;7.43;63.57
80397;BME280;69721;55.894;-3.052;2024-02-04T11:52:34;100583.71;;;7.90;61.58
80397;BME280;69721;55.894;-3.052;2024-02-04T11:55:00;100579.43;;;8.24;61.10
80397;BME280;69721;55.894;-3.052;2024-02-04T11:57:26;100581.26;;;8.77;58.78
80397;BME280;69721;55.894;-3.052;2024-02-04T11:59:51;100586.28;;;10.24;55.59
80397;BME280;69721;55.894;-3.052;2024-02-04T12:02:17;100571.21;;;10.27;54.82
80397;BME280;69721;55.894;-3.052;2024-02-04T12:04:42;100573.42;;;10.97;54.03
80397;BME280;69721;55.894;-3.052;2024-02-04T12:07:08;100561.69;;;10.35;55.35
80397;BME280;69721;55.894;-3.052;2024-02-04T12:09:35;100550.06;;;11.54;53.00
80397;BME280;69721;55.894;-3.052;2024-02-04T12:11:59;100537.36;;;10.65;55.37
80397;BME280;69721;55.894;-3.052;2024-02-04T12:14:25;100531.95;;;10.83;55.73
80397;BME280;69721;55.894;-3.052;2024-02-04T12:16:50;100532.50;;;10.43;55.50
80397;BME280;69721;55.894;-3.052;2024-02-04T12:19:15;100523.06;;;10.72;56.78
80397;BME280;69721;55.894;-3.052;2024-02-04T12:21:41;100501.29;;;12.30;53.00
80397;BME280;69721;55.894;-3.052;2024-02-04T12:24:07;100492.91;;;12.92;51.99
80397;BME280;69721;55.894;-3.052;2024-02-04T12:26:32;100487.36;;;13.23;50.65
80397;BME280;69721;55.894;-3.052;2024-02-04T12:28:58;100491.22;;;13.05;50.74
80397;BME280;69721;55.894;-3.052;2024-02-04T12:31:26;100486.53;;;13.01;51.57
80397;BME280;69721;55.894;-3.052;2024-02-04T12:33:54;100484.24;;;13.46;51.40
80397;BME280;69721;55.894;-3.052;2024-02-04T12:36:15;100477.43;;;12.40;52.66
80397;BME280;69721;55.894;-3.052;2024-02-04T12:38:39;100475.94;;;13.57;51.96
80397;BME280;69721;55.894;-3.052;2024-02-04T12:41:05;100473.36;;;11.84;53.59
80397;BME280;69721;55.894;-3.052;2024-02-04T12:43:30;100466.07;;;13.58;51.16
80397;BME280;69721;55.894;-3.052;2024-02-04T12:45:56;100459.34;;;12.65;51.88
80397;BME280;69721;55.894;-3.052;2024-02-04T12:48:21;100460.01;;;12.35;53.68